UAL1003 KMTJ-KDEN
Flight info
| Callsign | UAL1003 |
|---|---|
| Flight time | 0h 35m |
| Altitude | 25000 |
| Route | HBU3 HBU BBRRO TBARR4 |
| Aircraft | A320/M-SDE2E3FGHIJ1RWXY/LB1 |
Departure
| Time | 2026-04-20 00:20 |
|---|---|
| Airport | Montrose Regional Airport (KMTJ) |
Arrival
| Time | 2026-04-20 00:55 |
|---|---|
| Airport | Denver International Airport (KDEN) |
| Time | Latitude | Longitude | Altitude | Speed | Heading |
|---|---|---|---|---|---|
| 2026-04-19 23:52 | 38.50053 | -107.89855 | 5738 ft | 0 kts | 230° |
| 2026-04-20 00:10 | 38.50061 | -107.89844 | 5738 ft | 2 kts | 230° |
| 2026-04-20 00:10 | 38.50068 | -107.89832 | 5738 ft | 2 kts | 230° |
| 2026-04-20 00:10 | 38.50084 | -107.89821 | 5739 ft | 2 kts | 185° |
| 2026-04-20 00:10 | 38.50102 | -107.89825 | 5738 ft | 2 kts | 147° |
| 2026-04-20 00:11 | 38.50107 | -107.89831 | 5738 ft | 1 kts | 136° |
| 2026-04-20 00:11 | 38.50109 | -107.89833 | 5738 ft | 0 kts | 139° |
| 2026-04-20 00:14 | 38.50110 | -107.89834 | 5737 ft | 0 kts | 139° |
| 2026-04-20 00:14 | 38.50105 | -107.89829 | 5738 ft | 2 kts | 139° |
| 2026-04-20 00:14 | 38.50085 | -107.89806 | 5739 ft | 3 kts | 139° |
| 2026-04-20 00:15 | 38.50066 | -107.89785 | 5740 ft | 4 kts | 139° |
| 2026-04-20 00:15 | 38.50037 | -107.89746 | 5742 ft | 4 kts | 108° |
| 2026-04-20 00:15 | 38.50050 | -107.89701 | 5744 ft | 5 kts | 50° |
| 2026-04-20 00:15 | 38.50082 | -107.89653 | 5745 ft | 8 kts | 49° |
| 2026-04-20 00:16 | 38.50134 | -107.89576 | 5745 ft | 11 kts | 49° |
| 2026-04-20 00:16 | 38.50186 | -107.89500 | 5745 ft | 9 kts | 49° |
| 2026-04-20 00:16 | 38.50229 | -107.89438 | 5745 ft | 7 kts | 49° |
| 2026-04-20 00:16 | 38.50250 | -107.89405 | 5745 ft | 1 kts | 57° |
| 2026-04-20 00:17 | 38.50251 | -107.89403 | 5745 ft | 0 kts | 59° |
| 2026-04-20 00:18 | 38.50252 | -107.89402 | 5745 ft | 1 kts | 60° |
| 2026-04-20 00:18 | 38.50256 | -107.89368 | 5746 ft | 5 kts | 89° |
| 2026-04-20 00:18 | 38.50257 | -107.89317 | 5748 ft | 5 kts | 90° |
| 2026-04-20 00:18 | 38.50257 | -107.89275 | 5749 ft | 1 kts | 87° |
| 2026-04-20 00:19 | 38.50265 | -107.89263 | 5749 ft | 1 kts | 7° |
| 2026-04-20 00:19 | 38.50321 | -107.89265 | 5748 ft | 28 kts | 359° |
| 2026-04-20 00:19 | 38.50859 | -107.89268 | 5746 ft | 107 kts | 359° |
| 2026-04-20 00:19 | 38.51895 | -107.89272 | 5749 ft | 167 kts | 359° |
| 2026-04-20 00:20 | 38.53278 | -107.89277 | 6368 ft | 173 kts | 357° |
| 2026-04-20 00:20 | 38.54622 | -107.89412 | 7067 ft | 173 kts | 353° |
| 2026-04-20 00:20 | 38.55973 | -107.89590 | 7456 ft | 187 kts | 353° |
| 2026-04-20 00:20 | 38.57422 | -107.89748 | 7874 ft | 200 kts | 356° |
| 2026-04-20 00:21 | 38.58956 | -107.89262 | 8309 ft | 215 kts | 37° |
| 2026-04-20 00:21 | 38.59813 | -107.87439 | 8801 ft | 225 kts | 79° |
| 2026-04-20 00:21 | 38.59700 | -107.85182 | 9242 ft | 240 kts | 102° |
| 2026-04-20 00:21 | 38.59290 | -107.82850 | 9894 ft | 248 kts | 103° |
| 2026-04-20 00:22 | 38.58857 | -107.80490 | 10667 ft | 250 kts | 103° |
| 2026-04-20 00:22 | 38.58435 | -107.78172 | 11371 ft | 253 kts | 103° |
| 2026-04-20 00:22 | 38.57987 | -107.75678 | 11875 ft | 268 kts | 103° |
| 2026-04-20 00:22 | 38.57542 | -107.73163 | 12248 ft | 285 kts | 103° |
| 2026-04-20 00:23 | 38.57054 | -107.70397 | 12625 ft | 304 kts | 103° |
| 2026-04-20 00:23 | 38.56550 | -107.67531 | 12970 ft | 322 kts | 103° |
| 2026-04-20 00:23 | 38.56027 | -107.64558 | 13362 ft | 338 kts | 103° |
| 2026-04-20 00:23 | 38.55498 | -107.61560 | 13949 ft | 345 kts | 103° |
| 2026-04-20 00:24 | 38.54946 | -107.58437 | 14500 ft | 353 kts | 102° |
| 2026-04-20 00:24 | 38.54391 | -107.55295 | 15126 ft | 358 kts | 102° |
| 2026-04-20 00:24 | 38.53826 | -107.52101 | 15765 ft | 362 kts | 102° |
| 2026-04-20 00:24 | 38.53254 | -107.48870 | 16359 ft | 366 kts | 102° |
| 2026-04-20 00:25 | 38.52671 | -107.45583 | 16940 ft | 371 kts | 102° |
| 2026-04-20 00:25 | 38.52087 | -107.42297 | 17491 ft | 375 kts | 102° |
| 2026-04-20 00:25 | 38.51497 | -107.38978 | 18058 ft | 379 kts | 102° |
| 2026-04-20 00:25 | 38.50903 | -107.35646 | 18631 ft | 382 kts | 102° |
| 2026-04-20 00:26 | 38.50298 | -107.32259 | 19161 ft | 386 kts | 102° |
| 2026-04-20 00:26 | 38.49683 | -107.28816 | 19705 ft | 389 kts | 102° |
| 2026-04-20 00:26 | 38.49062 | -107.25352 | 20234 ft | 393 kts | 102° |
| 2026-04-20 00:26 | 38.48429 | -107.21817 | 20770 ft | 396 kts | 102° |
| 2026-04-20 00:27 | 38.47802 | -107.18326 | 21305 ft | 398 kts | 102° |
| 2026-04-20 00:27 | 38.47158 | -107.14754 | 21900 ft | 399 kts | 102° |
| 2026-04-20 00:27 | 38.46525 | -107.11252 | 22507 ft | 399 kts | 102° |
| 2026-04-20 00:27 | 38.45898 | -107.07751 | 23133 ft | 398 kts | 99° |
| 2026-04-20 00:28 | 38.45626 | -107.04221 | 23716 ft | 395 kts | 86° |
| 2026-04-20 00:28 | 38.45978 | -107.00692 | 24258 ft | 393 kts | 73° |
| 2026-04-20 00:28 | 38.46776 | -106.97308 | 24672 ft | 396 kts | 69° |
| 2026-04-20 00:28 | 38.47684 | -106.93844 | 25064 ft | 400 kts | 68° |
| 2026-04-20 00:29 | 38.48602 | -106.90361 | 25364 ft | 402 kts | 69° |
| 2026-04-20 00:29 | 38.49510 | -106.86865 | 25381 ft | 403 kts | 69° |
| 2026-04-20 00:29 | 38.50410 | -106.83347 | 25392 ft | 404 kts | 69° |
| 2026-04-20 00:29 | 38.51320 | -106.79771 | 25418 ft | 416 kts | 69° |
| 2026-04-20 00:30 | 38.52248 | -106.76088 | 25434 ft | 420 kts | 69° |
| 2026-04-20 00:30 | 38.53174 | -106.72398 | 25446 ft | 419 kts | 69° |
| 2026-04-20 00:30 | 38.54084 | -106.68758 | 25445 ft | 420 kts | 69° |
| 2026-04-20 00:30 | 38.55004 | -106.65086 | 25454 ft | 421 kts | 69° |
| 2026-04-20 00:31 | 38.55913 | -106.61448 | 25457 ft | 421 kts | 69° |
| 2026-04-20 00:31 | 38.56825 | -106.57787 | 25460 ft | 420 kts | 69° |
| 2026-04-20 00:31 | 38.57716 | -106.54207 | 25464 ft | 421 kts | 69° |
| 2026-04-20 00:31 | 38.58630 | -106.50528 | 25460 ft | 421 kts | 69° |
| 2026-04-20 00:32 | 38.59521 | -106.46940 | 25450 ft | 421 kts | 69° |
| 2026-04-20 00:32 | 38.60423 | -106.43304 | 25439 ft | 421 kts | 69° |
| 2026-04-20 00:32 | 38.61322 | -106.39671 | 25435 ft | 422 kts | 69° |
| 2026-04-20 00:32 | 38.62217 | -106.36053 | 25429 ft | 421 kts | 69° |
| 2026-04-20 00:33 | 38.63117 | -106.32404 | 25427 ft | 422 kts | 69° |
| 2026-04-20 00:33 | 38.64006 | -106.28796 | 25416 ft | 422 kts | 70° |
| 2026-04-20 00:33 | 38.65040 | -106.25238 | 25401 ft | 418 kts | 62° |
| 2026-04-20 00:33 | 38.66458 | -106.21954 | 25394 ft | 414 kts | 53° |
| 2026-04-20 00:34 | 38.68200 | -106.18999 | 25401 ft | 412 kts | 47° |
| 2026-04-20 00:34 | 38.70080 | -106.16139 | 25401 ft | 411 kts | 46° |
| 2026-04-20 00:34 | 38.71971 | -106.13304 | 25402 ft | 411 kts | 46° |
| 2026-04-20 00:34 | 38.73860 | -106.10460 | 25400 ft | 411 kts | 46° |
| 2026-04-20 00:35 | 38.75735 | -106.07613 | 25399 ft | 411 kts | 46° |
| 2026-04-20 00:35 | 38.77610 | -106.04748 | 25392 ft | 411 kts | 46° |
| 2026-04-20 00:35 | 38.79505 | -106.01846 | 25382 ft | 412 kts | 46° |
| 2026-04-20 00:35 | 38.81362 | -105.99000 | 25371 ft | 411 kts | 46° |
| 2026-04-20 00:36 | 38.83275 | -105.96060 | 25369 ft | 411 kts | 46° |
| 2026-04-20 00:36 | 38.85137 | -105.93191 | 25379 ft | 411 kts | 46° |
| 2026-04-20 00:36 | 38.86983 | -105.90349 | 25379 ft | 411 kts | 46° |
| 2026-04-20 00:36 | 38.88843 | -105.87482 | 25385 ft | 411 kts | 46° |
| 2026-04-20 00:37 | 38.90675 | -105.84636 | 25386 ft | 411 kts | 46° |
| 2026-04-20 00:37 | 38.92510 | -105.81777 | 25391 ft | 411 kts | 46° |
| 2026-04-20 00:37 | 38.94381 | -105.78856 | 25393 ft | 412 kts | 46° |
| 2026-04-20 00:37 | 38.96215 | -105.75993 | 25405 ft | 412 kts | 46° |
| 2026-04-20 00:38 | 38.98041 | -105.73141 | 25410 ft | 412 kts | 46° |
| 2026-04-20 00:38 | 38.99881 | -105.70264 | 25408 ft | 412 kts | 46° |
| 2026-04-20 00:38 | 39.01723 | -105.67381 | 25407 ft | 412 kts | 46° |
| 2026-04-20 00:38 | 39.03571 | -105.64506 | 25130 ft | 413 kts | 45° |
| 2026-04-20 00:39 | 39.05409 | -105.61655 | 24372 ft | 415 kts | 46° |
| 2026-04-20 00:39 | 39.07279 | -105.58754 | 23582 ft | 414 kts | 46° |
| 2026-04-20 00:39 | 39.09168 | -105.55815 | 22874 ft | 408 kts | 46° |
| 2026-04-20 00:39 | 39.10986 | -105.52979 | 22201 ft | 397 kts | 46° |
| 2026-04-20 00:40 | 39.12737 | -105.50248 | 21562 ft | 385 kts | 46° |
| 2026-04-20 00:40 | 39.14425 | -105.47609 | 21285 ft | 368 kts | 46° |
| 2026-04-20 00:40 | 39.16103 | -105.44974 | 20952 ft | 364 kts | 47° |
| 2026-04-20 00:40 | 39.17726 | -105.42402 | 20485 ft | 363 kts | 47° |
| 2026-04-20 00:41 | 39.19360 | -105.39809 | 20018 ft | 361 kts | 47° |
| 2026-04-20 00:41 | 39.20985 | -105.37224 | 19558 ft | 360 kts | 47° |
| 2026-04-20 00:41 | 39.22574 | -105.34694 | 19091 ft | 359 kts | 49° |
| 2026-04-20 00:41 | 39.24189 | -105.32125 | 18622 ft | 358 kts | 49° |
| 2026-04-20 00:42 | 39.25777 | -105.29593 | 18287 ft | 352 kts | 49° |
| 2026-04-20 00:42 | 39.27331 | -105.27073 | 18095 ft | 342 kts | 53° |
| 2026-04-20 00:42 | 39.28500 | -105.24211 | 17920 ft | 335 kts | 69° |
| 2026-04-20 00:42 | 39.29080 | -105.21072 | 17511 ft | 334 kts | 80° |
| 2026-04-20 00:43 | 39.29414 | -105.18091 | 17108 ft | 334 kts | 82° |
| 2026-04-20 00:43 | 39.29726 | -105.15109 | 16710 ft | 333 kts | 81° |
| 2026-04-20 00:43 | 39.30043 | -105.12177 | 16325 ft | 332 kts | 81° |
| 2026-04-20 00:43 | 39.30379 | -105.09229 | 15935 ft | 330 kts | 81° |
| 2026-04-20 00:44 | 39.30725 | -105.06250 | 15545 ft | 329 kts | 81° |
| 2026-04-20 00:44 | 39.31078 | -105.03236 | 15151 ft | 327 kts | 81° |
| 2026-04-20 00:44 | 39.31467 | -105.00166 | 14755 ft | 321 kts | 77° |
| 2026-04-20 00:44 | 39.32001 | -104.97132 | 14506 ft | 313 kts | 75° |
| 2026-04-20 00:45 | 39.32537 | -104.94274 | 14376 ft | 301 kts | 75° |
| 2026-04-20 00:45 | 39.33066 | -104.91460 | 14283 ft | 290 kts | 75° |
| 2026-04-20 00:45 | 39.33563 | -104.88811 | 14153 ft | 280 kts | 74° |
| 2026-04-20 00:45 | 39.34144 | -104.86211 | 14134 ft | 268 kts | 70° |
| 2026-04-20 00:46 | 39.34774 | -104.83713 | 13852 ft | 269 kts | 69° |
| 2026-04-20 00:46 | 39.35428 | -104.81149 | 13459 ft | 271 kts | 69° |
| 2026-04-20 00:46 | 39.36090 | -104.78603 | 13101 ft | 270 kts | 67° |
| 2026-04-20 00:46 | 39.36800 | -104.76195 | 13055 ft | 260 kts | 66° |
| 2026-04-20 00:47 | 39.37515 | -104.73820 | 13084 ft | 259 kts | 66° |
| 2026-04-20 00:47 | 39.38241 | -104.71408 | 13103 ft | 260 kts | 64° |
| 2026-04-20 00:47 | 39.39348 | -104.69226 | 13101 ft | 256 kts | 39° |
| 2026-04-20 00:47 | 39.40985 | -104.67763 | 13116 ft | 253 kts | 28° |
| 2026-04-20 00:48 | 39.42786 | -104.66674 | 12955 ft | 253 kts | 12° |
| 2026-04-20 00:48 | 39.44748 | -104.66402 | 12558 ft | 252 kts | 358° |
| 2026-04-20 00:48 | 39.46703 | -104.66421 | 12223 ft | 250 kts | 357° |
| 2026-04-20 00:48 | 39.48673 | -104.66444 | 12083 ft | 244 kts | 358° |
| 2026-04-20 00:49 | 39.50570 | -104.66443 | 11907 ft | 246 kts | 358° |
| 2026-04-20 00:49 | 39.52531 | -104.66428 | 11644 ft | 242 kts | 359° |
| 2026-04-20 00:49 | 39.54465 | -104.66397 | 11179 ft | 241 kts | 359° |
| 2026-04-20 00:49 | 39.56379 | -104.66364 | 10671 ft | 240 kts | 359° |
| 2026-04-20 00:50 | 39.58293 | -104.66338 | 10194 ft | 238 kts | 359° |
| 2026-04-20 00:50 | 39.60168 | -104.66315 | 9948 ft | 235 kts | 359° |
| 2026-04-20 00:50 | 39.61959 | -104.66294 | 9434 ft | 235 kts | 359° |
| 2026-04-20 00:50 | 39.63787 | -104.66273 | 8946 ft | 232 kts | 360° |
| 2026-04-20 00:51 | 39.65556 | -104.66253 | 8596 ft | 224 kts | 360° |
| 2026-04-20 00:51 | 39.67275 | -104.66234 | 8284 ft | 220 kts | 0° |
| 2026-04-20 00:51 | 39.68947 | -104.66216 | 7983 ft | 219 kts | 0° |
| 2026-04-20 00:51 | 39.70614 | -104.66197 | 7675 ft | 214 kts | 0° |
| 2026-04-20 00:52 | 39.72154 | -104.66179 | 7477 ft | 201 kts | 0° |
| 2026-04-20 00:52 | 39.73566 | -104.66162 | 7186 ft | 189 kts | 0° |
| 2026-04-20 00:52 | 39.74877 | -104.66147 | 6916 ft | 177 kts | 1° |
| 2026-04-20 00:52 | 39.76116 | -104.66133 | 6682 ft | 165 kts | 1° |
| 2026-04-20 00:53 | 39.77220 | -104.66122 | 6464 ft | 150 kts | 1° |
| 2026-04-20 00:53 | 39.78242 | -104.66110 | 6275 ft | 142 kts | 2° |
| 2026-04-20 00:53 | 39.79222 | -104.66099 | 6114 ft | 141 kts | 2° |
| 2026-04-20 00:53 | 39.80202 | -104.66087 | 5946 ft | 140 kts | 2° |
| 2026-04-20 00:54 | 39.81172 | -104.66071 | 5764 ft | 140 kts | 2° |
| 2026-04-20 00:54 | 39.82148 | -104.66060 | 5598 ft | 139 kts | 2° |
| 2026-04-20 00:54 | 39.83112 | -104.66052 | 5437 ft | 137 kts | 2° |
| 2026-04-20 00:54 | 39.83952 | -104.66038 | 5417 ft | 97 kts | 0° |
| 2026-04-20 00:55 | 39.84470 | -104.66035 | 5402 ft | 57 kts | 0° |
| 2026-04-20 00:55 | 39.84752 | -104.66064 | 5399 ft | 25 kts | 344° |
| 2026-04-20 00:55 | 39.84890 | -104.66142 | 5397 ft | 19 kts | 330° |
| 2026-04-20 00:55 | 39.85001 | -104.66222 | 5397 ft | 16 kts | 335° |
| 2026-04-20 00:56 | 39.85120 | -104.66241 | 5396 ft | 14 kts | 0° |
| 2026-04-20 00:56 | 39.85224 | -104.66240 | 5395 ft | 12 kts | 1° |
| 2026-04-20 00:56 | 39.85342 | -104.66238 | 5394 ft | 16 kts | 0° |
| 2026-04-20 00:56 | 39.85490 | -104.66236 | 5392 ft | 19 kts | 0° |
| 2026-04-20 00:57 | 39.85630 | -104.66237 | 5391 ft | 16 kts | 1° |
| 2026-04-20 00:57 | 39.85754 | -104.66234 | 5390 ft | 14 kts | 0° |
| 2026-04-20 00:57 | 39.85862 | -104.66233 | 5389 ft | 12 kts | 1° |
| 2026-04-20 00:57 | 39.85952 | -104.66231 | 5388 ft | 11 kts | 0° |
| 2026-04-20 00:58 | 39.86014 | -104.66256 | 5388 ft | 8 kts | 294° |
| 2026-04-20 00:58 | 39.86017 | -104.66345 | 5385 ft | 10 kts | 269° |
| 2026-04-20 00:58 | 39.86017 | -104.66455 | 5382 ft | 11 kts | 270° |
| 2026-04-20 00:58 | 39.86041 | -104.66566 | 5380 ft | 11 kts | 298° |
| 2026-04-20 00:59 | 39.86060 | -104.66665 | 5380 ft | 9 kts | 270° |
| 2026-04-20 00:59 | 39.86060 | -104.66754 | 5380 ft | 8 kts | 270° |
| 2026-04-20 00:59 | 39.86061 | -104.66850 | 5380 ft | 10 kts | 269° |
| 2026-04-20 00:59 | 39.86062 | -104.66957 | 5380 ft | 11 kts | 270° |
| 2026-04-20 01:00 | 39.86062 | -104.67085 | 5380 ft | 13 kts | 270° |
| 2026-04-20 01:00 | 39.86062 | -104.67216 | 5380 ft | 11 kts | 271° |
| 2026-04-20 01:00 | 39.86064 | -104.67328 | 5380 ft | 10 kts | 270° |
| 2026-04-20 01:00 | 39.86065 | -104.67443 | 5380 ft | 12 kts | 270° |
| 2026-04-20 01:01 | 39.86065 | -104.67561 | 5380 ft | 10 kts | 270° |
| 2026-04-20 01:01 | 39.86066 | -104.67660 | 5380 ft | 9 kts | 270° |
| 2026-04-20 01:01 | 39.86066 | -104.67742 | 5380 ft | 8 kts | 271° |
| 2026-04-20 01:01 | 39.86068 | -104.67821 | 5380 ft | 7 kts | 271° |
| 2026-04-20 01:02 | 39.86068 | -104.67906 | 5380 ft | 9 kts | 269° |
| 2026-04-20 01:02 | 39.86063 | -104.67988 | 5380 ft | 6 kts | 245° |
| 2026-04-20 01:02 | 39.86027 | -104.68006 | 5381 ft | 3 kts | 178° |
| 2026-04-20 01:02 | 39.86008 | -104.68005 | 5382 ft | 1 kts | 179° |